sensor_id;sensor_type;location;lat;lon;timestamp;P1;durP1;ratioP1;P2;durP2;ratioP2
41263;SDS011;26998;48.714;9.414;2023-02-15T00:00:45;40.10;;;21.50;;
41263;SDS011;26998;48.714;9.414;2023-02-15T00:03:11;34.70;;;19.30;;
41263;SDS011;26998;48.714;9.414;2023-02-15T00:05:37;39.50;;;22.27;;
41263;SDS011;26998;48.714;9.414;2023-02-15T00:08:04;38.10;;;21.63;;
41263;SDS011;26998;48.714;9.414;2023-02-15T00:10:30;36.93;;;21.10;;
41263;SDS011;26998;48.714;9.414;2023-02-15T00:12:57;36.60;;;21.47;;
41263;SDS011;26998;48.714;9.414;2023-02-15T00:15:23;42.23;;;23.17;;
41263;SDS011;26998;48.714;9.414;2023-02-15T00:17:50;38.80;;;21.33;;
41263;SDS011;26998;48.714;9.414;2023-02-15T00:20:16;39.30;;;20.90;;
41263;SDS011;26998;48.714;9.414;2023-02-15T00:22:43;38.13;;;21.23;;
41263;SDS011;26998;48.714;9.414;2023-02-15T00:25:09;39.43;;;21.23;;
41263;SDS011;26998;48.714;9.414;2023-02-15T00:27:36;39.67;;;21.97;;
41263;SDS011;26998;48.714;9.414;2023-02-15T00:30:02;36.07;;;20.40;;
41263;SDS011;26998;48.714;9.414;2023-02-15T00:32:29;38.80;;;21.33;;
41263;SDS011;26998;48.714;9.414;2023-02-15T00:34:55;36.10;;;19.97;;
41263;SDS011;26998;48.714;9.414;2023-02-15T00:37:22;33.60;;;19.87;;
41263;SDS011;26998;48.714;9.414;2023-02-15T00:39:48;35.27;;;19.23;;
41263;SDS011;26998;48.714;9.414;2023-02-15T00:42:15;35.57;;;19.93;;
41263;SDS011;26998;48.714;9.414;2023-02-15T00:44:41;35.93;;;19.97;;
41263;SDS011;26998;48.714;9.414;2023-02-15T00:47:09;35.20;;;19.87;;
41263;SDS011;26998;48.714;9.414;2023-02-15T00:49:35;37.80;;;20.50;;
41263;SDS011;26998;48.714;9.414;2023-02-15T00:52:02;40.73;;;18.77;;
41263;SDS011;26998;48.714;9.414;2023-02-15T00:54:28;34.63;;;20.10;;
41263;SDS011;26998;48.714;9.414;2023-02-15T00:56:55;35.47;;;19.70;;
41263;SDS011;26998;48.714;9.414;2023-02-15T00:59:21;35.17;;;19.63;;
41263;SDS011;26998;48.714;9.414;2023-02-15T01:01:49;36.80;;;20.37;;
41263;SDS011;26998;48.714;9.414;2023-02-15T01:04:15;42.47;;;20.83;;
41263;SDS011;26998;48.714;9.414;2023-02-15T01:06:42;40.43;;;20.50;;
41263;SDS011;26998;48.714;9.414;2023-02-15T01:09:09;38.40;;;21.53;;
41263;SDS011;26998;48.714;9.414;2023-02-15T01:11:35;40.20;;;21.93;;
41263;SDS011;26998;48.714;9.414;2023-02-15T01:14:02;39.43;;;22.47;;
41263;SDS011;26998;48.714;9.414;2023-02-15T01:16:28;37.47;;;21.30;;
41263;SDS011;26998;48.714;9.414;2023-02-15T01:18:55;39.07;;;20.60;;
41263;SDS011;26998;48.714;9.414;2023-02-15T01:21:22;37.00;;;21.83;;
41263;SDS011;26998;48.714;9.414;2023-02-15T01:23:52;34.67;;;19.20;;
41263;SDS011;26998;48.714;9.414;2023-02-15T01:26:19;41.60;;;22.00;;
41263;SDS011;26998;48.714;9.414;2023-02-15T01:28:46;41.43;;;21.00;;
41263;SDS011;26998;48.714;9.414;2023-02-15T01:31:14;38.67;;;20.73;;
41263;SDS011;26998;48.714;9.414;2023-02-15T01:33:42;38.50;;;21.40;;
41263;SDS011;26998;48.714;9.414;2023-02-15T01:36:08;38.83;;;20.17;;
41263;SDS011;26998;48.714;9.414;2023-02-15T01:38:35;39.30;;;20.97;;
41263;SDS011;26998;48.714;9.414;2023-02-15T01:41:02;38.73;;;20.33;;
41263;SDS011;26998;48.714;9.414;2023-02-15T01:43:41;38.37;;;20.77;;
41263;SDS011;26998;48.714;9.414;2023-02-15T01:46:10;37.63;;;19.67;;
41263;SDS011;26998;48.714;9.414;2023-02-15T01:48:42;38.67;;;20.25;;
41263;SDS011;26998;48.714;9.414;2023-02-15T01:51:12;33.57;;;19.77;;
41263;SDS011;26998;48.714;9.414;2023-02-15T01:53:43;36.07;;;20.43;;
41263;SDS011;26998;48.714;9.414;2023-02-15T01:56:25;36.07;;;19.53;;
41263;SDS011;26998;48.714;9.414;2023-02-15T01:58:56;38.93;;;20.50;;
41263;SDS011;26998;48.714;9.414;2023-02-15T02:01:26;34.42;;;20.00;;
41263;SDS011;26998;48.714;9.414;2023-02-15T02:04:13;38.30;;;19.80;;
41263;SDS011;26998;48.714;9.414;2023-02-15T02:06:44;36.45;;;19.20;;
41263;SDS011;26998;48.714;9.414;2023-02-15T02:09:15;35.45;;;19.33;;
41263;SDS011;26998;48.714;9.414;2023-02-15T02:11:41;37.10;;;19.63;;
41263;SDS011;26998;48.714;9.414;2023-02-15T02:14:12;37.60;;;20.20;;
41263;SDS011;26998;48.714;9.414;2023-02-15T02:16:45;39.57;;;18.70;;
41263;SDS011;26998;48.714;9.414;2023-02-15T02:25:57;37.67;;;18.87;;
41263;SDS011;26998;48.714;9.414;2023-02-15T02:28:48;37.43;;;20.43;;
41263;SDS011;26998;48.714;9.414;2023-02-15T02:34:29;38.93;;;20.53;;
41263;SDS011;26998;48.714;9.414;2023-02-15T02:42:27;40.00;;;20.00;;
41263;SDS011;26998;48.714;9.414;2023-02-15T02:45:18;33.08;;;18.13;;
41263;SDS011;26998;48.714;9.414;2023-02-15T02:47:47;40.20;;;19.40;;
41263;SDS011;26998;48.714;9.414;2023-02-15T02:50:22;37.37;;;19.20;;
41263;SDS011;26998;48.714;9.414;2023-02-15T02:52:52;33.23;;;18.63;;
41263;SDS011;26998;48.714;9.414;2023-02-15T02:55:25;36.83;;;20.37;;
41263;SDS011;26998;48.714;9.414;2023-02-15T02:58:02;35.93;;;19.70;;
41263;SDS011;26998;48.714;9.414;2023-02-15T03:00:30;42.70;;;19.97;;
41263;SDS011;26998;48.714;9.414;2023-02-15T03:03:02;35.33;;;20.40;;
41263;SDS011;26998;48.714;9.414;2023-02-15T03:05:34;42.63;;;19.80;;
41263;SDS011;26998;48.714;9.414;2023-02-15T03:08:07;33.63;;;18.60;;
41263;SDS011;26998;48.714;9.414;2023-02-15T03:10:35;37.90;;;20.20;;
41263;SDS011;26998;48.714;9.414;2023-02-15T03:13:05;40.45;;;19.60;;
41263;SDS011;26998;48.714;9.414;2023-02-15T03:15:34;37.53;;;19.60;;
41263;SDS011;26998;48.714;9.414;2023-02-15T03:18:04;35.93;;;19.63;;
41263;SDS011;26998;48.714;9.414;2023-02-15T03:20:32;40.60;;;21.10;;
41263;SDS011;26998;48.714;9.414;2023-02-15T03:23:07;34.77;;;19.67;;
41263;SDS011;26998;48.714;9.414;2023-02-15T03:25:40;36.63;;;19.60;;
41263;SDS011;26998;48.714;9.414;2023-02-15T03:28:13;36.70;;;21.07;;
41263;SDS011;26998;48.714;9.414;2023-02-15T03:30:44;37.63;;;19.30;;
41263;SDS011;26998;48.714;9.414;2023-02-15T03:33:14;37.67;;;19.47;;
41263;SDS011;26998;48.714;9.414;2023-02-15T03:35:47;32.37;;;18.90;;
41263;SDS011;26998;48.714;9.414;2023-02-15T03:38:27;35.40;;;19.13;;
41263;SDS011;26998;48.714;9.414;2023-02-15T03:41:09;35.58;;;19.50;;
41263;SDS011;26998;48.714;9.414;2023-02-15T03:48:47;39.03;;;19.83;;
41263;SDS011;26998;48.714;9.414;2023-02-15T03:51:19;33.80;;;19.07;;
41263;SDS011;26998;48.714;9.414;2023-02-15T03:53:49;35.27;;;18.43;;
41263;SDS011;26998;48.714;9.414;2023-02-15T03:56:18;37.87;;;19.83;;
41263;SDS011;26998;48.714;9.414;2023-02-15T03:58:44;37.63;;;20.70;;
41263;SDS011;26998;48.714;9.414;2023-02-15T04:01:13;38.07;;;20.20;;
41263;SDS011;26998;48.714;9.414;2023-02-15T04:03:57;36.90;;;19.60;;
41263;SDS011;26998;48.714;9.414;2023-02-15T04:06:29;37.07;;;19.63;;
41263;SDS011;26998;48.714;9.414;2023-02-15T04:08:55;37.70;;;20.07;;
41263;SDS011;26998;48.714;9.414;2023-02-15T04:11:22;42.53;;;21.07;;
41263;SDS011;26998;48.714;9.414;2023-02-15T04:13:48;41.67;;;20.10;;
41263;SDS011;26998;48.714;9.414;2023-02-15T04:16:15;39.87;;;19.97;;
41263;SDS011;26998;48.714;9.414;2023-02-15T04:18:42;39.80;;;21.00;;
41263;SDS011;26998;48.714;9.414;2023-02-15T04:21:09;35.07;;;19.93;;
41263;SDS011;26998;48.714;9.414;2023-02-15T04:23:35;35.33;;;18.70;;
41263;SDS011;26998;48.714;9.414;2023-02-15T04:26:05;36.07;;;19.37;;
41263;SDS011;26998;48.714;9.414;2023-02-15T04:28:32;38.90;;;19.20;;
41263;SDS011;26998;48.714;9.414;2023-02-15T04:30:58;39.33;;;19.73;;
41263;SDS011;26998;48.714;9.414;2023-02-15T04:33:25;32.97;;;18.10;;
41263;SDS011;26998;48.714;9.414;2023-02-15T04:35:52;36.23;;;20.23;;
41263;SDS011;26998;48.714;9.414;2023-02-15T04:38:18;34.57;;;18.53;;
41263;SDS011;26998;48.714;9.414;2023-02-15T04:40:49;33.03;;;19.53;;
41263;SDS011;26998;48.714;9.414;2023-02-15T04:43:16;38.97;;;19.73;;
41263;SDS011;26998;48.714;9.414;2023-02-15T04:45:47;37.73;;;18.97;;
41263;SDS011;26998;48.714;9.414;2023-02-15T04:48:17;41.83;;;21.30;;
41263;SDS011;26998;48.714;9.414;2023-02-15T04:50:44;41.97;;;21.07;;
41263;SDS011;26998;48.714;9.414;2023-02-15T04:53:10;37.00;;;19.40;;
41263;SDS011;26998;48.714;9.414;2023-02-15T04:55:37;37.67;;;20.83;;
41263;SDS011;26998;48.714;9.414;2023-02-15T04:58:04;38.50;;;19.53;;
41263;SDS011;26998;48.714;9.414;2023-02-15T05:00:30;38.50;;;20.53;;
41263;SDS011;26998;48.714;9.414;2023-02-15T05:02:57;40.57;;;18.50;;
41263;SDS011;26998;48.714;9.414;2023-02-15T05:05:24;40.17;;;21.67;;
41263;SDS011;26998;48.714;9.414;2023-02-15T05:07:50;40.00;;;21.57;;
41263;SDS011;26998;48.714;9.414;2023-02-15T05:10:17;37.90;;;20.23;;
41263;SDS011;26998;48.714;9.414;2023-02-15T05:12:43;36.20;;;20.43;;
41263;SDS011;26998;48.714;9.414;2023-02-15T05:15:10;36.70;;;20.10;;
41263;SDS011;26998;48.714;9.414;2023-02-15T05:17:36;37.47;;;21.17;;
41263;SDS011;26998;48.714;9.414;2023-02-15T05:20:03;39.77;;;20.50;;
41263;SDS011;26998;48.714;9.414;2023-02-15T05:22:31;36.73;;;20.57;;
41263;SDS011;26998;48.714;9.414;2023-02-15T05:24:57;38.90;;;20.90;;
41263;SDS011;26998;48.714;9.414;2023-02-15T05:27:24;36.77;;;19.57;;
41263;SDS011;26998;48.714;9.414;2023-02-15T05:29:51;42.83;;;21.80;;
41263;SDS011;26998;48.714;9.414;2023-02-15T05:32:17;40.30;;;20.97;;
41263;SDS011;26998;48.714;9.414;2023-02-15T05:34:44;41.80;;;22.53;;
41263;SDS011;26998;48.714;9.414;2023-02-15T05:37:12;45.97;;;23.43;;
41263;SDS011;26998;48.714;9.414;2023-02-15T05:39:38;46.80;;;22.10;;
41263;SDS011;26998;48.714;9.414;2023-02-15T05:42:05;43.83;;;22.97;;
41263;SDS011;26998;48.714;9.414;2023-02-15T05:44:31;37.83;;;20.67;;
41263;SDS011;26998;48.714;9.414;2023-02-15T05:46:58;41.90;;;20.40;;
41263;SDS011;26998;48.714;9.414;2023-02-15T05:49:24;35.13;;;19.77;;
41263;SDS011;26998;48.714;9.414;2023-02-15T05:51:51;46.03;;;22.00;;
41263;SDS011;26998;48.714;9.414;2023-02-15T05:54:17;40.93;;;22.20;;
41263;SDS011;26998;48.714;9.414;2023-02-15T05:56:43;36.23;;;18.77;;
41263;SDS011;26998;48.714;9.414;2023-02-15T05:59:10;46.27;;;23.30;;
41263;SDS011;26998;48.714;9.414;2023-02-15T06:01:36;41.10;;;21.33;;
41263;SDS011;26998;48.714;9.414;2023-02-15T06:04:03;41.73;;;21.30;;
41263;SDS011;26998;48.714;9.414;2023-02-15T06:06:29;44.93;;;21.93;;
41263;SDS011;26998;48.714;9.414;2023-02-15T06:08:56;40.83;;;21.60;;
41263;SDS011;26998;48.714;9.414;2023-02-15T06:11:22;47.20;;;25.47;;
41263;SDS011;26998;48.714;9.414;2023-02-15T06:13:51;49.50;;;25.40;;
41263;SDS011;26998;48.714;9.414;2023-02-15T06:16:17;51.97;;;27.00;;
41263;SDS011;26998;48.714;9.414;2023-02-15T06:18:44;56.53;;;25.63;;
41263;SDS011;26998;48.714;9.414;2023-02-15T06:21:11;64.07;;;25.77;;
41263;SDS011;26998;48.714;9.414;2023-02-15T06:23:38;58.30;;;25.30;;
41263;SDS011;26998;48.714;9.414;2023-02-15T06:26:05;63.17;;;27.40;;
41263;SDS011;26998;48.714;9.414;2023-02-15T06:28:34;67.35;;;20.95;;
41263;SDS011;26998;48.714;9.414;2023-02-15T06:31:01;85.27;;;27.80;;
41263;SDS011;26998;48.714;9.414;2023-02-15T06:33:28;64.43;;;27.87;;
41263;SDS011;26998;48.714;9.414;2023-02-15T06:35:54;55.23;;;27.20;;
41263;SDS011;26998;48.714;9.414;2023-02-15T06:38:21;51.30;;;27.43;;
41263;SDS011;26998;48.714;9.414;2023-02-15T06:40:49;57.63;;;26.53;;
41263;SDS011;26998;48.714;9.414;2023-02-15T06:43:15;70.43;;;29.93;;
41263;SDS011;26998;48.714;9.414;2023-02-15T06:45:42;69.60;;;27.73;;
41263;SDS011;26998;48.714;9.414;2023-02-15T06:48:09;76.87;;;28.70;;
41263;SDS011;26998;48.714;9.414;2023-02-15T06:50:35;63.90;;;26.90;;
41263;SDS011;26998;48.714;9.414;2023-02-15T06:53:02;51.53;;;25.93;;
41263;SDS011;26998;48.714;9.414;2023-02-15T06:55:29;57.67;;;26.97;;
41263;SDS011;26998;48.714;9.414;2023-02-15T06:57:56;55.37;;;25.07;;
41263;SDS011;26998;48.714;9.414;2023-02-15T07:00:24;62.47;;;28.23;;
41263;SDS011;26998;48.714;9.414;2023-02-15T07:02:54;54.73;;;27.03;;
41263;SDS011;26998;48.714;9.414;2023-02-15T07:05:22;51.05;;;25.83;;
41263;SDS011;26998;48.714;9.414;2023-02-15T07:07:48;48.00;;;26.93;;
41263;SDS011;26998;48.714;9.414;2023-02-15T07:10:17;52.30;;;27.50;;
41263;SDS011;26998;48.714;9.414;2023-02-15T07:12:45;55.27;;;28.33;;
41263;SDS011;26998;48.714;9.414;2023-02-15T07:15:16;54.70;;;26.60;;
41263;SDS011;26998;48.714;9.414;2023-02-15T07:17:43;49.73;;;26.57;;
41263;SDS011;26998;48.714;9.414;2023-02-15T07:20:12;49.77;;;27.17;;
41263;SDS011;26998;48.714;9.414;2023-02-15T07:22:46;44.63;;;26.87;;
41263;SDS011;26998;48.714;9.414;2023-02-15T07:25:13;47.67;;;26.40;;
41263;SDS011;26998;48.714;9.414;2023-02-15T07:27:40;47.30;;;26.57;;
41263;SDS011;26998;48.714;9.414;2023-02-15T07:30:11;53.00;;;27.13;;
41263;SDS011;26998;48.714;9.414;2023-02-15T07:32:40;49.13;;;25.97;;
41263;SDS011;26998;48.714;9.414;2023-02-15T07:35:07;49.07;;;26.50;;
41263;SDS011;26998;48.714;9.414;2023-02-15T07:37:34;45.30;;;24.47;;
41263;SDS011;26998;48.714;9.414;2023-02-15T07:40:00;53.57;;;26.33;;
41263;SDS011;26998;48.714;9.414;2023-02-15T07:42:27;44.53;;;25.57;;
41263;SDS011;26998;48.714;9.414;2023-02-15T07:44:53;50.50;;;28.07;;
41263;SDS011;26998;48.714;9.414;2023-02-15T07:47:20;43.47;;;25.30;;
41263;SDS011;26998;48.714;9.414;2023-02-15T07:49:46;42.87;;;25.70;;
41263;SDS011;26998;48.714;9.414;2023-02-15T07:52:14;43.13;;;25.07;;
41263;SDS011;26998;48.714;9.414;2023-02-15T07:54:41;40.37;;;25.10;;
41263;SDS011;26998;48.714;9.414;2023-02-15T07:57:07;40.63;;;23.83;;
41263;SDS011;26998;48.714;9.414;2023-02-15T07:59:34;38.93;;;23.00;;
41263;SDS011;26998;48.714;9.414;2023-02-15T08:02:00;39.50;;;23.30;;
41263;SDS011;26998;48.714;9.414;2023-02-15T08:04:27;41.80;;;24.17;;
41263;SDS011;26998;48.714;9.414;2023-02-15T08:06:53;37.63;;;21.93;;
41263;SDS011;26998;48.714;9.414;2023-02-15T08:09:20;34.83;;;22.20;;
41263;SDS011;26998;48.714;9.414;2023-02-15T08:11:47;41.73;;;24.40;;
41263;SDS011;26998;48.714;9.414;2023-02-15T08:14:18;44.27;;;24.67;;
41263;SDS011;26998;48.714;9.414;2023-02-15T08:16:55;38.37;;;22.40;;
41263;SDS011;26998;48.714;9.414;2023-02-15T08:19:26;35.60;;;21.17;;
41263;SDS011;26998;48.714;9.414;2023-02-15T08:21:56;35.73;;;21.80;;
41263;SDS011;26998;48.714;9.414;2023-02-15T08:24:34;31.37;;;20.13;;
41263;SDS011;26998;48.714;9.414;2023-02-15T08:27:04;25.35;;;16.35;;
41263;SDS011;26998;48.714;9.414;2023-02-15T08:29:32;33.13;;;21.70;;
41263;SDS011;26998;48.714;9.414;2023-02-15T08:32:01;31.17;;;20.07;;
41263;SDS011;26998;48.714;9.414;2023-02-15T08:34:31;34.07;;;21.93;;
41263;SDS011;26998;48.714;9.414;2023-02-15T08:36:59;39.57;;;23.43;;
41263;SDS011;26998;48.714;9.414;2023-02-15T08:39:26;37.93;;;22.23;;
41263;SDS011;26998;48.714;9.414;2023-02-15T08:41:53;31.93;;;19.77;;
41263;SDS011;26998;48.714;9.414;2023-02-15T08:44:20;30.97;;;20.40;;
41263;SDS011;26998;48.714;9.414;2023-02-15T08:46:50;32.03;;;20.33;;
41263;SDS011;26998;48.714;9.414;2023-02-15T08:49:20;36.17;;;20.90;;
41263;SDS011;26998;48.714;9.414;2023-02-15T08:51:48;34.80;;;21.87;;
41263;SDS011;26998;48.714;9.414;2023-02-15T08:54:17;30.23;;;19.67;;
41263;SDS011;26998;48.714;9.414;2023-02-15T08:56:46;29.57;;;20.73;;
41263;SDS011;26998;48.714;9.414;2023-02-15T08:59:22;41.57;;;23.97;;
41263;SDS011;26998;48.714;9.414;2023-02-15T09:01:50;45.60;;;25.70;;
41263;SDS011;26998;48.714;9.414;2023-02-15T09:04:18;29.75;;;19.83;;
41263;SDS011;26998;48.714;9.414;2023-02-15T09:06:46;34.17;;;20.90;;
41263;SDS011;26998;48.714;9.414;2023-02-15T09:09:14;32.45;;;21.05;;
41263;SDS011;26998;48.714;9.414;2023-02-15T09:11:45;34.42;;;21.30;;
41263;SDS011;26998;48.714;9.414;2023-02-15T09:14:15;34.28;;;20.83;;
41263;SDS011;26998;48.714;9.414;2023-02-15T09:16:45;34.78;;;20.48;;
41263;SDS011;26998;48.714;9.414;2023-02-15T09:19:13;34.65;;;20.52;;
41263;SDS011;26998;48.714;9.414;2023-02-15T09:21:40;28.23;;;18.83;;
41263;SDS011;26998;48.714;9.414;2023-02-15T09:24:07;30.63;;;18.67;;
41263;SDS011;26998;48.714;9.414;2023-02-15T09:26:39;32.15;;;18.92;;
41263;SDS011;26998;48.714;9.414;2023-02-15T09:29:07;32.85;;;20.08;;
41263;SDS011;26998;48.714;9.414;2023-02-15T09:31:42;25.58;;;17.85;;
41263;SDS011;26998;48.714;9.414;2023-02-15T09:34:11;24.88;;;17.60;;
41263;SDS011;26998;48.714;9.414;2023-02-15T09:36:39;26.58;;;17.83;;
41263;SDS011;26998;48.714;9.414;2023-02-15T09:39:21;26.27;;;16.55;;
41263;SDS011;26998;48.714;9.414;2023-02-15T09:49:55;27.05;;;17.02;;
41263;SDS011;26998;48.714;9.414;2023-02-15T10:01:09;21.30;;;15.45;;
41263;SDS011;26998;48.714;9.414;2023-02-15T10:04:47;25.38;;;16.63;;
41263;SDS011;26998;48.714;9.414;2023-02-15T10:07:16;31.77;;;16.58;;
41263;SDS011;26998;48.714;9.414;2023-02-15T10:10:14;25.20;;;15.32;;
41263;SDS011;26998;48.714;9.414;2023-02-15T10:13:22;39.00;;;18.23;;
41263;SDS011;26998;48.714;9.414;2023-02-15T10:16:15;32.25;;;18.30;;
41263;SDS011;26998;48.714;9.414;2023-02-15T10:18:55;27.27;;;17.77;;
41263;SDS011;26998;48.714;9.414;2023-02-15T10:25:01;25.55;;;16.55;;
41263;SDS011;26998;48.714;9.414;2023-02-15T10:28:06;22.70;;;15.70;;
41263;SDS011;26998;48.714;9.414;2023-02-15T10:30:50;22.45;;;15.85;;
41263;SDS011;26998;48.714;9.414;2023-02-15T10:39:04;20.48;;;14.27;;
41263;SDS011;26998;48.714;9.414;2023-02-15T10:41:46;19.30;;;12.20;;
41263;SDS011;26998;48.714;9.414;2023-02-15T10:47:10;16.55;;;13.20;;
41263;SDS011;26998;48.714;9.414;2023-02-15T10:49:55;19.85;;;13.43;;
41263;SDS011;26998;48.714;9.414;2023-02-15T10:58:22;24.73;;;13.82;;
41263;SDS011;26998;48.714;9.414;2023-02-15T11:01:01;22.20;;;12.40;;
41263;SDS011;26998;48.714;9.414;2023-02-15T11:06:21;19.23;;;12.85;;
41263;SDS011;26998;48.714;9.414;2023-02-15T11:08:53;17.38;;;12.60;;
41263;SDS011;26998;48.714;9.414;2023-02-15T11:11:25;23.83;;;14.63;;
41263;SDS011;26998;48.714;9.414;2023-02-15T11:13:57;20.90;;;13.95;;
41263;SDS011;26998;48.714;9.414;2023-02-15T11:16:32;16.50;;;12.23;;
41263;SDS011;26998;48.714;9.414;2023-02-15T11:19:50;18.27;;;13.35;;
41263;SDS011;26998;48.714;9.414;2023-02-15T11:22:01;19.58;;;12.98;;
41263;SDS011;26998;48.714;9.414;2023-02-15T11:24:34;17.58;;;13.07;;
41263;SDS011;26998;48.714;9.414;2023-02-15T11:29:59;20.13;;;13.57;;
41263;SDS011;26998;48.714;9.414;2023-02-15T11:35:18;20.23;;;14.10;;
41263;SDS011;26998;48.714;9.414;2023-02-15T11:38:02;22.70;;;14.02;;
41263;SDS011;26998;48.714;9.414;2023-02-15T11:40:47;16.27;;;12.40;;
41263;SDS011;26998;48.714;9.414;2023-02-15T11:45:57;19.15;;;13.68;;
41263;SDS011;26998;48.714;9.414;2023-02-15T11:48:24;21.08;;;14.45;;
41263;SDS011;26998;48.714;9.414;2023-02-15T11:50:50;18.38;;;14.52;;
41263;SDS011;26998;48.714;9.414;2023-02-15T11:53:18;19.20;;;14.40;;
41263;SDS011;26998;48.714;9.414;2023-02-15T11:55:48;22.42;;;14.77;;
41263;SDS011;26998;48.714;9.414;2023-02-15T12:01:08;16.85;;;13.18;;
41263;SDS011;26998;48.714;9.414;2023-02-15T12:03:52;21.48;;;14.23;;
41263;SDS011;26998;48.714;9.414;2023-02-15T12:11:45;18.92;;;14.02;;
41263;SDS011;26998;48.714;9.414;2023-02-15T12:14:12;26.52;;;16.58;;
41263;SDS011;26998;48.714;9.414;2023-02-15T12:16:47;28.35;;;16.50;;
41263;SDS011;26998;48.714;9.414;2023-02-15T12:22:16;27.27;;;14.80;;
41263;SDS011;26998;48.714;9.414;2023-02-15T12:24:47;26.65;;;15.25;;
41263;SDS011;26998;48.714;9.414;2023-02-15T12:27:19;28.27;;;14.77;;
41263;SDS011;26998;48.714;9.414;2023-02-15T12:29:49;24.08;;;14.05;;
41263;SDS011;26998;48.714;9.414;2023-02-15T12:34:55;28.05;;;14.27;;
41263;SDS011;26998;48.714;9.414;2023-02-15T12:37:28;21.42;;;12.02;;
41263;SDS011;26998;48.714;9.414;2023-02-15T12:39:58;15.18;;;10.75;;
41263;SDS011;26998;48.714;9.414;2023-02-15T12:42:27;18.40;;;10.82;;
41263;SDS011;26998;48.714;9.414;2023-02-15T12:45:23;15.67;;;10.53;;
41263;SDS011;26998;48.714;9.414;2023-02-15T12:48:15;18.90;;;11.07;;
41263;SDS011;26998;48.714;9.414;2023-02-15T12:50:47;18.35;;;10.43;;
41263;SDS011;26998;48.714;9.414;2023-02-15T12:56:04;18.48;;;11.63;;
41263;SDS011;26998;48.714;9.414;2023-02-15T12:58:33;17.77;;;11.20;;
41263;SDS011;26998;48.714;9.414;2023-02-15T13:03:36;16.88;;;11.52;;
41263;SDS011;26998;48.714;9.414;2023-02-15T13:06:22;28.05;;;13.68;;
41263;SDS011;26998;48.714;9.414;2023-02-15T13:08:51;27.08;;;12.85;;
41263;SDS011;26998;48.714;9.414;2023-02-15T13:11:27;17.30;;;11.13;;
41263;SDS011;26998;48.714;9.414;2023-02-15T13:13:58;20.95;;;12.73;;
41263;SDS011;26998;48.714;9.414;2023-02-15T13:16:36;20.08;;;12.70;;
41263;SDS011;26998;48.714;9.414;2023-02-15T13:19:11;21.80;;;11.93;;
41263;SDS011;26998;48.714;9.414;2023-02-15T13:21:45;13.05;;;10.68;;
41263;SDS011;26998;48.714;9.414;2023-02-15T13:26:54;14.73;;;10.82;;
41263;SDS011;26998;48.714;9.414;2023-02-15T13:29:42;18.38;;;12.55;;
41263;SDS011;26998;48.714;9.414;2023-02-15T13:34:54;16.92;;;11.30;;
41263;SDS011;26998;48.714;9.414;2023-02-15T13:42:31;20.17;;;12.60;;
41263;SDS011;26998;48.714;9.414;2023-02-15T13:45:13;17.13;;;12.40;;
41263;SDS011;26998;48.714;9.414;2023-02-15T13:48:18;17.48;;;12.52;;
41263;SDS011;26998;48.714;9.414;2023-02-15T13:53:55;17.25;;;12.60;;
41263;SDS011;26998;48.714;9.414;2023-02-15T13:56:39;17.67;;;12.38;;
41263;SDS011;26998;48.714;9.414;2023-02-15T14:01:58;16.30;;;10.73;;
41263;SDS011;26998;48.714;9.414;2023-02-15T14:30:16;22.52;;;12.18;;
41263;SDS011;26998;48.714;9.414;2023-02-15T14:32:53;24.38;;;15.13;;
41263;SDS011;26998;48.714;9.414;2023-02-15T14:35:24;25.70;;;16.17;;
41263;SDS011;26998;48.714;9.414;2023-02-15T14:46:22;30.17;;;18.05;;
41263;SDS011;26998;48.714;9.414;2023-02-15T14:56:42;22.70;;;16.92;;
41263;SDS011;26998;48.714;9.414;2023-02-15T15:01:55;30.08;;;17.85;;
41263;SDS011;26998;48.714;9.414;2023-02-15T15:04:26;31.08;;;17.77;;
41263;SDS011;26998;48.714;9.414;2023-02-15T15:09:34;34.03;;;17.98;;
41263;SDS011;26998;48.714;9.414;2023-02-15T15:12:46;30.95;;;18.20;;
41263;SDS011;26998;48.714;9.414;2023-02-15T15:14:59;29.48;;;18.48;;
41263;SDS011;26998;48.714;9.414;2023-02-15T15:20:03;21.60;;;15.25;;
41263;SDS011;26998;48.714;9.414;2023-02-15T15:22:41;23.50;;;16.58;;
41263;SDS011;26998;48.714;9.414;2023-02-15T15:25:10;41.63;;;20.10;;
41263;SDS011;26998;48.714;9.414;2023-02-15T15:27:58;36.78;;;19.80;;
41263;SDS011;26998;48.714;9.414;2023-02-15T15:50:11;36.15;;;20.38;;
41263;SDS011;26998;48.714;9.414;2023-02-15T15:52:41;40.83;;;22.88;;
41263;SDS011;26998;48.714;9.414;2023-02-15T15:55:17;32.75;;;19.90;;
41263;SDS011;26998;48.714;9.414;2023-02-15T15:57:46;34.28;;;20.55;;
41263;SDS011;26998;48.714;9.414;2023-02-15T16:03:01;41.58;;;23.63;;
41263;SDS011;26998;48.714;9.414;2023-02-15T16:05:34;30.67;;;20.52;;
41263;SDS011;26998;48.714;9.414;2023-02-15T16:08:02;38.00;;;23.38;;
41263;SDS011;26998;48.714;9.414;2023-02-15T16:10:29;34.60;;;22.27;;
41263;SDS011;26998;48.714;9.414;2023-02-15T16:12:56;41.13;;;22.42;;
41263;SDS011;26998;48.714;9.414;2023-02-15T16:15:42;38.92;;;22.65;;
41263;SDS011;26998;48.714;9.414;2023-02-15T16:18:13;29.70;;;20.20;;
41263;SDS011;26998;48.714;9.414;2023-02-15T16:20:55;39.60;;;23.52;;
41263;SDS011;26998;48.714;9.414;2023-02-15T16:23:36;45.65;;;26.08;;
41263;SDS011;26998;48.714;9.414;2023-02-15T16:26:40;36.03;;;23.45;;
41263;SDS011;26998;48.714;9.414;2023-02-15T16:29:25;39.75;;;23.75;;
41263;SDS011;26998;48.714;9.414;2023-02-15T16:34:50;41.53;;;24.55;;
41263;SDS011;26998;48.714;9.414;2023-02-15T16:37:28;36.10;;;22.33;;
41263;SDS011;26998;48.714;9.414;2023-02-15T16:39:59;30.33;;;21.10;;
41263;SDS011;26998;48.714;9.414;2023-02-15T16:42:27;33.45;;;21.13;;
41263;SDS011;26998;48.714;9.414;2023-02-15T16:44:55;36.08;;;23.38;;
41263;SDS011;26998;48.714;9.414;2023-02-15T16:47:28;40.20;;;23.08;;
41263;SDS011;26998;48.714;9.414;2023-02-15T16:50:02;37.33;;;22.58;;
41263;SDS011;26998;48.714;9.414;2023-02-15T16:52:30;35.30;;;22.30;;
41263;SDS011;26998;48.714;9.414;2023-02-15T16:55:01;42.22;;;25.17;;
41263;SDS011;26998;48.714;9.414;2023-02-15T16:57:32;36.45;;;23.58;;
41263;SDS011;26998;48.714;9.414;2023-02-15T17:00:06;37.97;;;22.85;;
41263;SDS011;26998;48.714;9.414;2023-02-15T17:02:52;38.30;;;22.85;;
41263;SDS011;26998;48.714;9.414;2023-02-15T17:05:25;39.47;;;23.88;;
41263;SDS011;26998;48.714;9.414;2023-02-15T17:08:24;32.13;;;21.80;;
41263;SDS011;26998;48.714;9.414;2023-02-15T17:13:28;35.22;;;20.27;;
41263;SDS011;26998;48.714;9.414;2023-02-15T17:18:26;26.60;;;17.83;;
41263;SDS011;26998;48.714;9.414;2023-02-15T17:20:58;35.28;;;21.42;;
41263;SDS011;26998;48.714;9.414;2023-02-15T17:23:31;33.75;;;20.42;;
41263;SDS011;26998;48.714;9.414;2023-02-15T17:26:00;34.30;;;20.33;;
41263;SDS011;26998;48.714;9.414;2023-02-15T17:28:36;31.73;;;21.23;;
41263;SDS011;26998;48.714;9.414;2023-02-15T17:31:06;33.22;;;20.42;;
41263;SDS011;26998;48.714;9.414;2023-02-15T17:36:12;29.48;;;19.80;;
41263;SDS011;26998;48.714;9.414;2023-02-15T17:41:24;28.77;;;18.50;;
41263;SDS011;26998;48.714;9.414;2023-02-15T17:43:52;28.92;;;17.35;;
41263;SDS011;26998;48.714;9.414;2023-02-15T17:46:18;31.65;;;18.08;;
41263;SDS011;26998;48.714;9.414;2023-02-15T17:48:46;25.25;;;16.08;;
41263;SDS011;26998;48.714;9.414;2023-02-15T17:51:14;25.75;;;15.55;;